createdAt,value
2023-01-28T00:00:58.709Z,7.20
2023-01-28T00:03:25.998Z,6.00
2023-01-28T00:06:02.688Z,3.77
2023-01-28T00:08:30.038Z,4.90
2023-01-28T00:11:00.141Z,6.20
2023-01-28T00:13:27.427Z,6.17
2023-01-28T00:15:58.792Z,4.73
2023-01-28T00:18:26.704Z,5.90
2023-01-28T00:20:58.524Z,6.37
2023-01-28T00:23:26.629Z,6.43
2023-01-28T00:25:54.303Z,5.20
2023-01-28T00:28:21.746Z,7.73
2023-01-28T00:30:49.063Z,9.50
2023-01-28T00:33:16.337Z,6.90
2023-01-28T00:35:43.818Z,6.80
2023-01-28T00:38:12.081Z,6.97
2023-01-28T00:40:39.369Z,5.93
2023-01-28T00:43:06.857Z,3.67
2023-01-28T00:45:34.119Z,5.43
2023-01-28T00:48:01.424Z,6.70
2023-01-28T00:50:28.679Z,5.90
2023-01-28T00:52:56.006Z,4.50
2023-01-28T00:55:24.012Z,7.03
2023-01-28T00:57:51.283Z,4.80
2023-01-28T01:00:20.378Z,6.77
2023-01-28T01:02:47.880Z,7.37
2023-01-28T01:05:15.580Z,6.17
2023-01-28T01:07:43.155Z,6.83
2023-01-28T01:10:12.920Z,8.27
2023-01-28T01:12:41.520Z,2.90
2023-01-28T01:15:10.212Z,8.53
2023-01-28T01:17:37.541Z,5.90
2023-01-28T01:20:06.496Z,8.57
2023-01-28T01:22:34.495Z,5.80
2023-01-28T01:25:01.861Z,4.83
2023-01-28T01:27:29.110Z,8.33
2023-01-28T01:29:58.260Z,6.77
2023-01-28T01:32:28.688Z,8.63
2023-01-28T01:34:55.943Z,6.03
2023-01-28T01:37:23.251Z,8.00
2023-01-28T01:39:50.538Z,7.70
2023-01-28T01:42:17.955Z,8.63
2023-01-28T01:45:00.259Z,9.10
2023-01-28T01:47:33.751Z,7.77
2023-01-28T01:50:06.066Z,7.23
2023-01-28T01:52:35.888Z,7.70
2023-01-28T01:55:09.124Z,6.30
2023-01-28T01:57:37.024Z,6.70
2023-01-28T02:00:07.035Z,7.47
2023-01-28T02:02:36.466Z,9.70
2023-01-28T02:05:04.852Z,9.40
2023-01-28T02:07:32.650Z,7.20
2023-01-28T02:09:59.913Z,7.47
2023-01-28T02:12:32.837Z,6.50
2023-01-28T02:15:05.590Z,6.10
2023-01-28T02:17:34.182Z,7.43
2023-01-28T02:20:02.710Z,8.10
2023-01-28T02:23:00.611Z,6.60
2023-01-28T02:26:02.362Z,5.00
2023-01-28T02:28:35.850Z,7.00
2023-01-28T02:31:10.720Z,6.80
2023-01-28T02:33:42.278Z,4.90
2023-01-28T02:36:18.125Z,6.73
2023-01-28T02:38:48.651Z,5.67
2023-01-28T02:41:22.645Z,5.83
2023-01-28T02:43:50.638Z,3.50
2023-01-28T02:46:54.600Z,3.20
2023-01-28T02:49:27.642Z,3.87
2023-01-28T02:52:45.675Z,3.70
2023-01-28T02:55:20.767Z,3.87
2023-01-28T02:57:58.720Z,3.00
2023-01-28T03:00:30.647Z,4.50
2023-01-28T03:03:05.972Z,2.73
2023-01-28T03:05:38.669Z,3.80
2023-01-28T03:08:21.910Z,2.63
2023-01-28T03:11:07.509Z,4.30
2023-01-28T03:13:53.135Z,2.40
2023-01-28T03:16:38.996Z,3.57
2023-01-28T03:19:24.795Z,2.00
2023-01-28T03:22:11.455Z,3.97
2023-01-28T03:25:02.017Z,3.73
2023-01-28T03:27:51.792Z,3.93
2023-01-28T03:30:42.936Z,4.87
2023-01-28T03:33:30.117Z,3.73
2023-01-28T03:36:15.369Z,3.93
2023-01-28T03:38:47.775Z,4.60
2023-01-28T03:41:21.726Z,5.40
2023-01-28T03:43:49.811Z,4.00
2023-01-28T03:46:17.749Z,4.70
2023-01-28T03:48:45.930Z,2.83
2023-01-28T03:51:13.280Z,4.03
2023-01-28T03:53:40.587Z,4.77
2023-01-28T03:56:08.694Z,5.20
2023-01-28T03:58:45.928Z,4.37
2023-01-28T04:01:13.329Z,2.60
2023-01-28T04:03:40.569Z,3.80
2023-01-28T04:06:09.765Z,3.17
2023-01-28T04:08:36.997Z,3.47
2023-01-28T04:11:15.484Z,4.90
2023-01-28T04:13:43.037Z,3.63
2023-01-28T04:16:11.284Z,4.03
2023-01-28T04:18:38.920Z,4.07
2023-01-28T04:21:07.439Z,3.70
2023-01-28T04:23:34.792Z,5.20
2023-01-28T04:26:03.353Z,4.90
2023-01-28T04:28:30.846Z,3.30
2023-01-28T04:30:58.142Z,3.50
2023-01-28T04:33:25.463Z,3.63
2023-01-28T04:35:52.765Z,5.43
2023-01-28T04:38:20.687Z,4.53
2023-01-28T04:40:50.413Z,3.80
2023-01-28T04:43:19.122Z,4.90
2023-01-28T04:45:46.673Z,4.40
2023-01-28T04:48:14.033Z,7.40
2023-01-28T04:50:41.541Z,4.37
2023-01-28T04:53:09.132Z,3.53
2023-01-28T04:55:37.432Z,5.40
2023-01-28T04:58:04.854Z,2.30
2023-01-28T05:00:32.135Z,4.47
2023-01-28T05:02:59.406Z,5.57
2023-01-28T05:05:26.742Z,5.53
2023-01-28T05:07:55.336Z,5.00
2023-01-28T05:10:23.751Z,4.60
2023-01-28T05:12:51.720Z,4.07
2023-01-28T05:15:19.928Z,6.47
2023-01-28T05:17:47.757Z,2.87
2023-01-28T05:20:15.443Z,6.17
2023-01-28T05:22:43.278Z,5.30
2023-01-28T05:25:10.735Z,5.77
2023-01-28T05:27:37.932Z,7.20
2023-01-28T05:30:07.407Z,6.63
2023-01-28T05:32:34.699Z,4.90
2023-01-28T05:35:02.227Z,4.87
2023-01-28T05:37:29.504Z,6.40
2023-01-28T05:39:56.710Z,5.97
2023-01-28T05:42:23.962Z,5.57
2023-01-28T05:44:51.405Z,4.57
2023-01-28T05:47:19.483Z,3.60
2023-01-28T05:49:46.696Z,5.83
2023-01-28T05:52:14.007Z,4.10
2023-01-28T05:54:41.241Z,5.60
2023-01-28T05:57:08.547Z,3.43
2023-01-28T05:59:35.835Z,4.30
2023-01-28T06:02:03.197Z,2.90
2023-01-28T06:04:31.136Z,3.27
2023-01-28T06:06:58.434Z,3.40
2023-01-28T06:09:25.689Z,3.03
2023-01-28T06:11:53.933Z,3.53
2023-01-28T06:14:21.167Z,4.67
2023-01-28T06:16:49.469Z,4.33
2023-01-28T06:19:16.704Z,3.87
2023-01-28T06:21:44.637Z,4.40
2023-01-28T06:24:12.932Z,2.80
2023-01-28T06:26:40.237Z,4.40
2023-01-28T06:29:07.550Z,3.80
2023-01-28T06:31:34.869Z,2.83
2023-01-28T06:34:02.447Z,4.43
2023-01-28T06:36:29.862Z,3.17
2023-01-28T06:38:58.083Z,4.43
2023-01-28T06:41:25.343Z,2.90
2023-01-28T06:43:52.702Z,4.47
2023-01-28T06:46:20.115Z,3.67
2023-01-28T06:48:47.427Z,1.63
2023-01-28T06:51:15.121Z,3.30
2023-01-28T06:53:43.249Z,4.00
2023-01-28T06:56:12.552Z,4.53
2023-01-28T06:58:39.859Z,2.63
2023-01-28T07:01:07.112Z,1.90
2023-01-28T07:03:34.488Z,2.03
2023-01-28T07:06:01.783Z,2.57
2023-01-28T07:08:29.030Z,1.70
2023-01-28T07:10:56.474Z,3.27
2023-01-28T07:13:24.517Z,2.53
2023-01-28T07:15:51.897Z,3.60
2023-01-28T07:18:19.458Z,3.63
2023-01-28T07:20:46.703Z,4.67
2023-01-28T07:23:13.989Z,3.50
2023-01-28T07:25:41.263Z,2.70
2023-01-28T07:28:08.542Z,3.53
2023-01-28T07:30:36.553Z,2.90
2023-01-28T07:33:04.159Z,4.30
2023-01-28T07:35:32.979Z,4.10
2023-01-28T07:38:01.537Z,4.40
2023-01-28T07:40:29.585Z,4.80
2023-01-28T07:42:57.016Z,4.30
2023-01-28T07:45:25.139Z,5.27
2023-01-28T07:47:57.382Z,4.40
2023-01-28T07:50:25.309Z,5.00
2023-01-28T07:52:52.630Z,4.87
2023-01-28T07:55:19.952Z,5.13
2023-01-28T07:57:51.494Z,4.27
2023-01-28T08:00:19.924Z,5.20
2023-01-28T08:02:47.673Z,6.30
2023-01-28T08:05:17.633Z,7.50
2023-01-28T08:07:45.463Z,5.03
2023-01-28T08:10:13.728Z,5.40
2023-01-28T08:12:41.327Z,5.50
2023-01-28T08:15:09.674Z,7.20
2023-01-28T08:17:36.964Z,6.13
2023-01-28T08:20:04.939Z,5.43
2023-01-28T08:22:33.002Z,5.73
2023-01-28T08:25:00.225Z,5.87
2023-01-28T08:27:27.489Z,5.37
2023-01-28T08:29:54.739Z,4.20
2023-01-28T08:32:22.064Z,3.93
2023-01-28T08:34:49.446Z,3.93
2023-01-28T08:37:16.729Z,4.77
2023-01-28T08:39:46.432Z,5.03
2023-01-28T08:42:13.824Z,4.60
2023-01-28T08:44:41.159Z,4.07
2023-01-28T08:47:08.441Z,4.70
2023-01-28T08:49:35.679Z,3.83
2023-01-28T08:52:03.141Z,2.50
2023-01-28T08:54:30.403Z,4.10
2023-01-28T08:56:58.412Z,4.07
2023-01-28T08:59:25.652Z,5.37
2023-01-28T09:01:53.019Z,5.40
2023-01-28T09:04:20.383Z,6.07
2023-01-28T09:06:47.652Z,4.33
2023-01-28T09:09:14.932Z,5.70
2023-01-28T09:11:42.346Z,6.53
2023-01-28T09:14:10.446Z,6.80
2023-01-28T09:16:37.670Z,4.87
2023-01-28T09:19:05.166Z,4.40
2023-01-28T09:21:32.424Z,3.37
2023-01-28T09:23:59.810Z,4.07
2023-01-28T09:26:27.101Z,3.20
2023-01-28T09:28:55.186Z,4.37
2023-01-28T09:31:23.550Z,3.37
2023-01-28T09:33:55.933Z,2.97
2023-01-28T09:36:23.387Z,6.20
2023-01-28T09:38:51.492Z,3.07
2023-01-28T09:41:26.315Z,2.17
2023-01-28T09:44:28.139Z,3.80
2023-01-28T09:47:01.483Z,3.87
2023-01-28T09:49:35.036Z,6.70
2023-01-28T09:52:02.928Z,6.37
2023-01-28T09:54:37.017Z,5.20
2023-01-28T09:57:11.807Z,4.17
2023-01-28T09:59:39.194Z,2.60
2023-01-28T10:02:33.969Z,1.80
2023-01-28T10:05:15.762Z,2.80
2023-01-28T10:07:50.549Z,2.60
2023-01-28T10:10:21.830Z,1.80
2023-01-28T10:13:17.391Z,2.30
2023-01-28T10:16:09.021Z,2.63
2023-01-28T10:18:43.892Z,2.83
2023-01-28T10:21:16.713Z,3.07
2023-01-28T10:23:54.792Z,3.40
2023-01-28T10:26:24.724Z,2.13
2023-01-28T10:28:56.519Z,3.07
2023-01-28T10:31:30.402Z,2.23
2023-01-28T10:33:58.815Z,2.80
2023-01-28T10:36:26.387Z,1.10
2023-01-28T10:38:53.696Z,1.47
2023-01-28T10:41:22.652Z,1.93
2023-01-28T10:43:50.458Z,2.67
2023-01-28T10:46:22.332Z,2.10
2023-01-28T10:48:56.377Z,2.00
2023-01-28T10:51:34.107Z,3.17
2023-01-28T10:54:01.785Z,2.67
2023-01-28T10:56:32.075Z,2.33
2023-01-28T10:59:02.765Z,2.77
2023-01-28T11:01:45.216Z,2.40
2023-01-28T11:04:21.915Z,2.33
2023-01-28T11:06:59.044Z,2.43
2023-01-28T11:09:28.708Z,1.43
2023-01-28T11:11:56.193Z,1.80
2023-01-28T11:14:25.615Z,0.60
2023-01-28T11:16:58.813Z,2.90
2023-01-28T11:19:33.797Z,7.10
2023-01-28T11:22:05.010Z,8.80
2023-01-28T11:24:34.378Z,9.33
2023-01-28T11:27:17.514Z,3.20
2023-01-28T11:29:45.316Z,2.90
2023-01-28T11:32:20.437Z,1.60
2023-01-28T11:34:52.643Z,1.70
2023-01-28T11:37:23.690Z,3.37
2023-01-28T11:40:01.990Z,1.57
2023-01-28T11:42:30.114Z,1.77
2023-01-28T11:44:57.481Z,2.00
2023-01-28T11:47:38.422Z,3.33
2023-01-28T11:50:27.368Z,2.30
2023-01-28T11:53:35.175Z,1.37
2023-01-28T11:56:14.710Z,2.90
2023-01-28T11:58:48.657Z,1.60
2023-01-28T12:01:28.680Z,3.70
2023-01-28T12:04:25.347Z,1.80
2023-01-28T12:07:16.238Z,3.10
2023-01-28T12:09:54.101Z,2.30
2023-01-28T12:12:56.382Z,2.47
2023-01-28T12:15:48.539Z,1.13
2023-01-28T12:18:37.972Z,3.73
2023-01-28T12:21:08.684Z,2.90
2023-01-28T12:23:59.513Z,1.60
2023-01-28T12:26:35.011Z,1.87
2023-01-28T12:29:18.394Z,2.43
2023-01-28T12:32:06.609Z,1.97
2023-01-28T12:35:11.911Z,1.57
2023-01-28T12:37:52.614Z,1.93
2023-01-28T12:40:45.771Z,3.30
2023-01-28T12:43:20.783Z,3.20
2023-01-28T12:45:53.365Z,3.43
2023-01-28T12:48:30.474Z,3.70
2023-01-28T12:51:03.349Z,2.20
2023-01-28T12:53:37.817Z,2.40
2023-01-28T12:56:14.989Z,2.73
2023-01-28T12:58:49.543Z,1.83
2023-01-28T13:01:23.943Z,1.57
2023-01-28T13:03:55.901Z,1.90
2023-01-28T13:06:29.741Z,2.03
2023-01-28T13:09:01.727Z,1.70
2023-01-28T13:11:35.668Z,2.23
2023-01-28T13:14:05.474Z,3.07
2023-01-28T13:16:37.821Z,3.83
2023-01-28T13:19:08.210Z,4.20
2023-01-28T13:21:47.414Z,6.80
2023-01-28T13:24:34.923Z,10.00
2023-01-28T13:27:12.985Z,4.03
2023-01-28T13:29:40.300Z,7.23
2023-01-28T13:32:29.091Z,6.57
2023-01-28T13:35:02.349Z,5.90
2023-01-28T13:37:33.577Z,4.53
2023-01-28T13:40:06.632Z,4.63
2023-01-28T13:42:34.631Z,3.87
2023-01-28T13:45:23.275Z,3.17
2023-01-28T13:47:55.858Z,4.00
2023-01-28T13:50:25.517Z,6.50
2023-01-28T13:52:57.901Z,8.33
2023-01-28T13:55:42.665Z,3.80
2023-01-28T13:58:50.591Z,1.83
2023-01-28T14:01:42.788Z,6.67
2023-01-28T14:04:35.554Z,5.00
2023-01-28T14:07:34.351Z,3.17
2023-01-28T14:10:34.100Z,2.60
2023-01-28T14:13:33.644Z,2.07
2023-01-28T14:16:20.154Z,2.83
2023-01-28T14:18:49.555Z,4.77
2023-01-28T14:21:21.324Z,3.30
2023-01-28T14:23:51.497Z,4.90
2023-01-28T14:26:32.271Z,2.73
2023-01-28T14:29:14.050Z,2.60
2023-01-28T14:31:41.876Z,2.97
2023-01-28T14:34:19.702Z,3.40
2023-01-28T14:36:49.681Z,2.83
2023-01-28T14:39:19.588Z,1.90
2023-01-28T14:41:49.583Z,2.00
2023-01-28T14:44:27.937Z,4.73
2023-01-28T14:47:18.551Z,1.93
2023-01-28T14:50:00.602Z,1.77
2023-01-28T14:52:54.012Z,2.30
2023-01-28T14:55:33.874Z,2.17
2023-01-28T14:58:04.492Z,3.50
2023-01-28T15:00:34.095Z,3.20
2023-01-28T15:03:23.221Z,2.80
2023-01-28T15:06:05.719Z,2.57
2023-01-28T15:08:35.116Z,2.60
2023-01-28T15:11:02.993Z,2.50
2023-01-28T15:13:33.605Z,3.47
2023-01-28T15:16:08.065Z,2.83
2023-01-28T15:18:37.826Z,3.53
2023-01-28T15:21:05.411Z,2.77
2023-01-28T15:23:34.880Z,3.27
2023-01-28T15:26:06.285Z,3.30
2023-01-28T15:28:36.609Z,2.87
2023-01-28T15:31:04.182Z,3.93
2023-01-28T15:33:32.280Z,4.40
2023-01-28T15:36:00.020Z,4.07
2023-01-28T15:38:28.734Z,3.80
2023-01-28T15:40:58.156Z,3.67
2023-01-28T15:43:27.804Z,4.07
2023-01-28T15:45:56.646Z,6.03
2023-01-28T15:48:26.336Z,6.53
2023-01-28T15:51:00.946Z,5.33
2023-01-28T15:53:36.209Z,7.67
2023-01-28T15:56:09.037Z,5.73
2023-01-28T15:58:40.588Z,6.97
2023-01-28T16:01:16.337Z,5.93
2023-01-28T16:03:45.761Z,7.60
2023-01-28T16:06:17.386Z,6.90
2023-01-28T16:08:51.609Z,7.50
2023-01-28T16:11:24.695Z,4.10
2023-01-28T16:13:52.695Z,5.50
2023-01-28T16:16:28.178Z,4.40
2023-01-28T16:18:56.023Z,4.00
2023-01-28T16:21:26.128Z,3.73
2023-01-28T16:23:59.062Z,4.50
2023-01-28T16:26:28.879Z,4.27
2023-01-28T16:28:56.311Z,4.60
2023-01-28T16:31:23.837Z,4.40
2023-01-28T16:33:51.184Z,4.07
2023-01-28T16:36:18.881Z,4.47
2023-01-28T16:38:47.115Z,4.80
2023-01-28T16:41:18.483Z,6.20
2023-01-28T16:43:45.845Z,10.93
2023-01-28T16:46:13.345Z,38.30
2023-01-28T16:48:40.770Z,27.03
2023-01-28T16:51:15.422Z,16.50
2023-01-28T16:53:43.145Z,13.90
2023-01-28T16:56:30.356Z,12.03
2023-01-28T16:59:02.113Z,10.13
2023-01-28T17:01:29.482Z,9.07
2023-01-28T17:03:56.908Z,8.73
2023-01-28T17:06:24.321Z,11.13
2023-01-28T17:08:51.632Z,8.50
2023-01-28T17:11:19.621Z,9.80
2023-01-28T17:13:46.930Z,10.80
2023-01-28T17:16:14.276Z,11.90
2023-01-28T17:18:41.618Z,18.07
2023-01-28T17:21:10.000Z,10.07
2023-01-28T17:23:37.405Z,11.70
2023-01-28T17:26:05.764Z,14.13
2023-01-28T17:28:33.973Z,9.60
2023-01-28T17:31:04.943Z,7.60
2023-01-28T17:33:32.278Z,10.20
2023-01-28T17:36:01.074Z,9.57
2023-01-28T17:38:28.521Z,11.13
2023-01-28T17:41:00.404Z,9.70
2023-01-28T17:43:27.746Z,17.93
2023-01-28T17:45:55.945Z,15.93
2023-01-28T17:48:23.418Z,13.83
2023-01-28T17:50:50.760Z,14.23
2023-01-28T17:53:18.059Z,12.77
2023-01-28T17:55:45.581Z,10.70
2023-01-28T17:58:12.828Z,11.60
2023-01-28T18:00:40.170Z,12.57
2023-01-28T18:03:11.585Z,18.87
2023-01-28T18:05:39.053Z,17.17
2023-01-28T18:08:07.109Z,16.40
2023-01-28T18:10:34.713Z,15.80
2023-01-28T18:13:02.072Z,13.00
2023-01-28T18:15:29.386Z,11.60
2023-01-28T18:17:56.628Z,11.37
2023-01-28T18:20:24.753Z,12.67
2023-01-28T18:22:52.026Z,13.27
2023-01-28T18:25:20.045Z,16.37
2023-01-28T18:27:47.477Z,17.80
2023-01-28T18:30:15.672Z,14.33
2023-01-28T18:32:42.984Z,13.47
2023-01-28T18:35:12.346Z,10.27
2023-01-28T18:37:40.831Z,11.00
2023-01-28T18:40:09.193Z,11.00
2023-01-28T18:42:37.150Z,11.77
2023-01-28T18:45:05.666Z,17.03
2023-01-28T18:47:32.972Z,11.30
2023-01-28T18:50:00.327Z,12.43
2023-01-28T18:52:27.921Z,11.07
2023-01-28T18:54:56.895Z,11.87
2023-01-28T18:57:24.362Z,12.87
2023-01-28T18:59:51.620Z,11.80
2023-01-28T19:02:18.968Z,13.60
2023-01-28T19:04:46.393Z,12.57
2023-01-28T19:07:13.694Z,17.40
2023-01-28T19:09:40.958Z,15.83
2023-01-28T19:12:09.028Z,14.20
2023-01-28T19:14:36.437Z,11.50
2023-01-28T19:17:04.063Z,12.30
2023-01-28T19:19:31.478Z,16.77
2023-01-28T19:21:58.811Z,10.03
2023-01-28T19:24:26.747Z,11.33
2023-01-28T19:26:54.198Z,10.87
2023-01-28T19:29:24.831Z,14.17
2023-01-28T19:31:52.168Z,11.60
2023-01-28T19:34:19.493Z,10.13
2023-01-28T19:36:46.825Z,10.33
2023-01-28T19:39:15.360Z,9.80
2023-01-28T19:41:43.891Z,11.30
2023-01-28T19:44:11.756Z,9.57
2023-01-28T19:46:40.753Z,9.40
2023-01-28T19:49:09.944Z,9.77
2023-01-28T19:51:37.330Z,8.40
2023-01-28T19:54:04.803Z,13.97
2023-01-28T19:56:35.355Z,8.57
2023-01-28T19:59:02.865Z,10.60
2023-01-28T20:01:30.836Z,10.03
2023-01-28T20:04:00.243Z,11.40
2023-01-28T20:06:28.916Z,12.33
2023-01-28T20:08:58.599Z,10.37
2023-01-28T20:11:26.069Z,12.30
2023-01-28T20:13:54.376Z,11.17
2023-01-28T20:16:23.565Z,10.00
2023-01-28T20:18:52.227Z,10.13
2023-01-28T20:21:21.077Z,8.73
2023-01-28T20:23:49.693Z,12.60
2023-01-28T20:26:20.393Z,11.60
2023-01-28T20:28:48.011Z,11.10
2023-01-28T20:31:15.930Z,12.80
2023-01-28T20:33:43.470Z,12.40
2023-01-28T20:36:13.787Z,13.23
2023-01-28T20:38:44.510Z,13.00
2023-01-28T20:41:14.105Z,10.23
2023-01-28T20:43:43.674Z,11.90
2023-01-28T20:46:13.820Z,20.10
2023-01-28T20:48:41.357Z,17.40
2023-01-28T20:51:10.520Z,12.07
2023-01-28T20:53:38.176Z,10.97
2023-01-28T20:56:07.619Z,11.33
2023-01-28T20:58:35.573Z,11.20
2023-01-28T21:01:03.499Z,11.57
2023-01-28T21:03:30.851Z,12.37
2023-01-28T21:05:58.187Z,11.77
2023-01-28T21:08:25.553Z,10.37
2023-01-28T21:10:52.835Z,13.00
2023-01-28T21:13:20.821Z,11.67
2023-01-28T21:15:52.697Z,12.10
2023-01-28T21:18:20.144Z,10.30
2023-01-28T21:20:47.493Z,10.27
2023-01-28T21:23:15.232Z,10.47
2023-01-28T21:25:42.823Z,10.67
2023-01-28T21:28:11.902Z,10.70
2023-01-28T21:30:40.343Z,13.03
2023-01-28T21:33:08.475Z,9.10
2023-01-28T21:35:37.627Z,10.37
2023-01-28T21:38:05.217Z,10.33
2023-01-28T21:40:33.165Z,10.50
2023-01-28T21:43:00.782Z,9.53
2023-01-28T21:45:28.571Z,7.93
2023-01-28T21:47:56.567Z,8.70
2023-01-28T21:50:24.165Z,7.47
2023-01-28T21:52:51.908Z,8.23
2023-01-28T21:55:19.544Z,7.37
2023-01-28T21:57:46.854Z,8.67
2023-01-28T22:00:15.096Z,7.80
2023-01-28T22:02:42.935Z,9.27
2023-01-28T22:05:10.933Z,8.80
2023-01-28T22:07:38.582Z,8.40
2023-01-28T22:10:06.603Z,9.63
2023-01-28T22:12:33.911Z,18.80
2023-01-28T22:15:01.172Z,17.90
2023-01-28T22:17:28.843Z,13.10
2023-01-28T22:19:56.210Z,9.03
2023-01-28T22:22:24.336Z,8.53
2023-01-28T22:24:51.596Z,9.57
2023-01-28T22:27:18.843Z,8.37
2023-01-28T22:29:46.187Z,7.43
2023-01-28T22:32:13.497Z,8.17
2023-01-28T22:34:40.784Z,7.90
2023-01-28T22:37:09.712Z,8.63
2023-01-28T22:39:37.748Z,8.07
2023-01-28T22:42:05.353Z,8.40
2023-01-28T22:44:32.710Z,8.77
2023-01-28T22:47:00.003Z,8.33
2023-01-28T22:49:27.311Z,9.10
2023-01-28T22:51:55.342Z,8.63
2023-01-28T22:54:22.647Z,8.83
2023-01-28T22:56:50.588Z,7.60
2023-01-28T22:59:18.005Z,9.27
2023-01-28T23:01:46.483Z,8.00
2023-01-28T23:04:13.847Z,6.97
2023-01-28T23:06:41.120Z,5.97
2023-01-28T23:09:08.611Z,6.83
2023-01-28T23:11:35.921Z,7.20
2023-01-28T23:14:22.267Z,6.30
2023-01-28T23:17:08.157Z,7.13
2023-01-28T23:19:54.109Z,7.00
2023-01-28T23:22:42.576Z,6.57
2023-01-28T23:25:10.760Z,6.67
2023-01-28T23:27:38.193Z,9.37
2023-01-28T23:30:09.240Z,8.13
2023-01-28T23:32:36.969Z,6.20
2023-01-28T23:35:04.939Z,6.47
2023-01-28T23:37:32.231Z,6.00
2023-01-28T23:39:59.596Z,6.37
2023-01-28T23:42:26.867Z,5.90
2023-01-28T23:44:54.121Z,7.20
2023-01-28T23:47:22.067Z,6.13
2023-01-28T23:49:49.306Z,6.13
2023-01-28T23:52:16.805Z,6.20
2023-01-28T23:54:44.087Z,7.50
2023-01-28T23:57:11.354Z,5.40
2023-01-28T23:59:38.651Z,6.73
